createdAt,value
2017-08-15T00:00:54.513Z,8.43
2017-08-15T00:03:21.220Z,7.17
2017-08-15T00:05:47.847Z,6.57
2017-08-15T00:08:14.459Z,6.83
2017-08-15T00:10:41.087Z,7.77
2017-08-15T00:13:07.700Z,7.00
2017-08-15T00:15:34.339Z,6.13
2017-08-15T00:18:00.930Z,6.20
2017-08-15T00:20:27.579Z,6.50
2017-08-15T00:22:54.233Z,7.07
2017-08-15T00:25:20.850Z,6.30
2017-08-15T00:27:47.494Z,5.27
2017-08-15T00:30:14.131Z,6.27
2017-08-15T00:32:40.727Z,6.50
2017-08-15T00:35:07.377Z,4.70
2017-08-15T00:37:33.998Z,5.33
2017-08-15T00:40:00.618Z,6.10
2017-08-15T00:42:27.245Z,8.50
2017-08-15T00:44:53.887Z,3.70
2017-08-15T00:47:20.503Z,9.13
2017-08-15T00:49:47.159Z,7.27
2017-08-15T00:52:13.762Z,11.40
2017-08-15T00:54:40.379Z,7.37
2017-08-15T00:57:07.020Z,6.10
2017-08-15T00:59:33.628Z,8.27
2017-08-15T01:02:00.251Z,8.70
2017-08-15T01:04:26.878Z,11.10
2017-08-15T01:06:53.506Z,8.57
2017-08-15T01:09:20.140Z,12.80
2017-08-15T01:11:46.787Z,9.93
2017-08-15T01:14:13.412Z,9.37
2017-08-15T01:16:40.040Z,9.80
2017-08-15T01:19:06.673Z,9.27
2017-08-15T01:21:33.272Z,8.23
2017-08-15T01:23:59.894Z,8.97
2017-08-15T01:26:26.546Z,7.70
2017-08-15T01:28:53.323Z,7.90
2017-08-15T01:31:19.932Z,8.73
2017-08-15T01:33:46.556Z,11.80
2017-08-15T01:36:13.178Z,8.03
2017-08-15T01:38:39.787Z,8.30
2017-08-15T01:41:06.418Z,8.47
2017-08-15T01:43:33.056Z,7.90
2017-08-15T01:45:59.688Z,10.50
2017-08-15T01:48:26.319Z,9.60
2017-08-15T01:50:52.937Z,9.87
2017-08-15T01:53:19.555Z,12.13
2017-08-15T01:55:46.191Z,8.23
2017-08-15T01:58:12.796Z,11.43
2017-08-15T02:00:39.501Z,15.83
2017-08-15T02:03:06.278Z,9.10
2017-08-15T02:05:32.877Z,9.80
2017-08-15T02:07:59.509Z,9.33
2017-08-15T02:10:26.130Z,10.83
2017-08-15T02:12:52.762Z,13.07
2017-08-15T02:15:19.382Z,10.30
2017-08-15T02:17:46.011Z,11.50
2017-08-15T02:20:12.623Z,11.67
2017-08-15T02:22:39.259Z,12.13
2017-08-15T02:25:05.899Z,10.00
2017-08-15T02:27:32.518Z,10.33
2017-08-15T02:29:59.135Z,15.03
2017-08-15T02:32:25.771Z,11.43
2017-08-15T02:34:52.396Z,12.73
2017-08-15T02:37:19.046Z,13.47
2017-08-15T02:39:45.664Z,12.30
2017-08-15T02:42:12.331Z,13.10
2017-08-15T02:44:38.959Z,13.43
2017-08-15T02:47:05.620Z,16.33
2017-08-15T02:49:32.247Z,11.13
2017-08-15T02:51:58.872Z,11.83
2017-08-15T02:54:25.535Z,15.00
2017-08-15T02:56:52.146Z,11.53
2017-08-15T02:59:18.766Z,7.17
2017-08-15T03:01:45.386Z,7.77
2017-08-15T03:04:12.014Z,8.90
2017-08-15T03:06:38.683Z,13.00
2017-08-15T03:09:05.299Z,9.80
2017-08-15T03:11:31.932Z,14.13
2017-08-15T03:13:58.550Z,12.53
2017-08-15T03:16:25.171Z,13.07
2017-08-15T03:18:51.838Z,12.87
2017-08-15T03:21:18.443Z,14.23
2017-08-15T03:23:45.158Z,10.33
2017-08-15T03:26:11.769Z,18.73
2017-08-15T03:28:38.398Z,17.97
2017-08-15T03:31:05.045Z,15.23
2017-08-15T03:33:31.671Z,14.70
2017-08-15T03:35:58.311Z,14.53
2017-08-15T03:38:24.967Z,16.77
2017-08-15T03:40:51.592Z,15.23
2017-08-15T03:43:18.237Z,14.37
2017-08-15T03:45:44.863Z,14.77
2017-08-15T03:48:11.523Z,13.63
2017-08-15T03:50:38.134Z,17.50
2017-08-15T03:53:04.751Z,13.83
2017-08-15T03:55:31.393Z,14.57
2017-08-15T03:57:58.031Z,11.40
2017-08-15T04:00:24.682Z,15.10
2017-08-15T04:02:51.322Z,11.17
2017-08-15T04:05:17.939Z,11.10
2017-08-15T04:07:44.585Z,12.70
2017-08-15T04:10:11.213Z,15.40
2017-08-15T04:12:37.851Z,15.53
2017-08-15T04:15:04.497Z,10.93
2017-08-15T04:17:31.114Z,11.30
2017-08-15T04:19:57.767Z,10.33
2017-08-15T04:22:24.393Z,10.97
2017-08-15T04:24:51.049Z,10.57
2017-08-15T04:27:17.660Z,13.43
2017-08-15T04:29:44.277Z,11.03
2017-08-15T04:32:10.915Z,10.90
2017-08-15T04:34:37.564Z,11.67
2017-08-15T04:37:04.214Z,10.40
2017-08-15T04:39:31.100Z,10.60
2017-08-15T04:41:57.770Z,10.47
2017-08-15T04:44:24.711Z,8.53
2017-08-15T04:46:51.328Z,12.23
2017-08-15T04:49:17.966Z,10.53
2017-08-15T04:51:44.576Z,11.03
2017-08-15T04:54:11.225Z,9.53
2017-08-15T04:56:37.853Z,9.40
2017-08-15T04:59:04.476Z,6.90
2017-08-15T05:01:31.118Z,10.97
2017-08-15T05:03:57.773Z,13.33
2017-08-15T05:06:24.403Z,9.70
2017-08-15T05:08:51.040Z,7.83
2017-08-15T05:11:17.647Z,7.63
2017-08-15T05:13:44.286Z,10.10
2017-08-15T05:16:10.912Z,9.57
2017-08-15T05:18:37.559Z,11.30
2017-08-15T05:21:04.175Z,10.83
2017-08-15T05:23:30.805Z,11.67
2017-08-15T05:25:57.416Z,8.93
2017-08-15T05:28:24.059Z,7.87
2017-08-15T05:30:50.685Z,13.00
2017-08-15T05:33:17.319Z,8.97
2017-08-15T05:35:43.966Z,9.83
2017-08-15T05:38:10.569Z,9.90
2017-08-15T05:40:37.198Z,8.70
2017-08-15T05:43:03.822Z,7.67
2017-08-15T05:45:30.439Z,7.50
2017-08-15T05:47:57.103Z,8.20
2017-08-15T05:50:23.766Z,7.90
2017-08-15T05:52:50.415Z,6.83
2017-08-15T05:55:17.033Z,9.07
2017-08-15T05:57:43.664Z,10.07
2017-08-15T06:00:10.317Z,8.37
2017-08-15T06:02:37.036Z,7.80
2017-08-15T06:05:03.640Z,8.43
2017-08-15T06:07:30.269Z,6.67
2017-08-15T06:09:58.088Z,7.53
2017-08-15T06:12:24.721Z,8.50
2017-08-15T06:14:51.374Z,6.63
2017-08-15T06:17:17.979Z,7.17
2017-08-15T06:19:44.591Z,15.30
2017-08-15T06:22:11.245Z,6.30
2017-08-15T06:24:37.866Z,9.23
2017-08-15T06:27:05.447Z,7.00
2017-08-15T06:29:32.064Z,5.30
2017-08-15T06:31:58.699Z,7.00
2017-08-15T06:34:25.556Z,5.40
2017-08-15T06:36:52.190Z,4.10
2017-08-15T06:39:18.827Z,7.20
2017-08-15T06:41:45.460Z,6.87
2017-08-15T06:44:12.075Z,4.77
2017-08-15T06:46:38.680Z,4.60
2017-08-15T06:49:05.310Z,6.00
2017-08-15T06:51:31.927Z,7.13
2017-08-15T06:53:58.567Z,5.00
2017-08-15T06:56:25.191Z,5.17
2017-08-15T06:58:51.832Z,5.50
2017-08-15T07:01:18.464Z,4.87
2017-08-15T07:03:45.105Z,5.03
2017-08-15T07:06:11.711Z,6.63
2017-08-15T07:08:38.356Z,5.47
2017-08-15T07:11:05.013Z,7.50
2017-08-15T07:13:31.662Z,6.47
2017-08-15T07:15:58.271Z,5.80
2017-08-15T07:18:24.924Z,11.60
2017-08-15T07:20:51.555Z,7.60
2017-08-15T07:23:18.166Z,9.07
2017-08-15T07:25:44.826Z,5.90
2017-08-15T07:28:11.476Z,6.90
2017-08-15T07:30:38.114Z,8.93
2017-08-15T07:33:04.735Z,6.13
2017-08-15T07:35:31.366Z,6.10
2017-08-15T07:37:57.999Z,6.60
2017-08-15T07:40:24.635Z,5.50
2017-08-15T07:42:51.254Z,6.10
2017-08-15T07:45:18.432Z,7.40
2017-08-15T07:47:45.086Z,4.93
2017-08-15T07:50:11.694Z,5.07
2017-08-15T07:52:38.315Z,13.97
2017-08-15T07:55:04.986Z,4.70
2017-08-15T07:57:31.583Z,4.10
2017-08-15T07:59:58.226Z,5.67
2017-08-15T08:02:24.864Z,4.73
2017-08-15T08:04:51.503Z,5.30
2017-08-15T08:07:18.115Z,9.23
2017-08-15T08:09:44.744Z,9.50
2017-08-15T08:12:11.364Z,5.93
2017-08-15T08:14:37.999Z,9.20
2017-08-15T08:17:04.641Z,9.20
2017-08-15T08:19:31.267Z,6.77
2017-08-15T08:21:57.895Z,7.80
2017-08-15T08:24:24.519Z,7.97
2017-08-15T08:26:51.135Z,5.93
2017-08-15T08:29:17.792Z,7.00
2017-08-15T08:31:44.426Z,9.27
2017-08-15T08:34:11.068Z,8.53
2017-08-15T08:36:37.678Z,7.17
2017-08-15T08:39:04.328Z,14.10
2017-08-15T08:41:30.975Z,10.27
2017-08-15T08:43:57.654Z,10.17
2017-08-15T08:46:24.311Z,8.67
2017-08-15T08:48:50.955Z,12.00
2017-08-15T08:51:17.573Z,11.10
2017-08-15T08:53:44.343Z,10.00
2017-08-15T08:56:10.961Z,10.87
2017-08-15T08:58:37.579Z,10.23
2017-08-15T09:01:04.300Z,14.73
2017-08-15T09:03:30.924Z,9.40
2017-08-15T09:05:57.571Z,12.63
2017-08-15T09:08:24.210Z,9.67
2017-08-15T09:10:50.840Z,12.30
2017-08-15T09:13:17.472Z,8.50
2017-08-15T09:15:44.095Z,10.57
2017-08-15T09:18:10.740Z,18.10
2017-08-15T09:20:37.350Z,10.33
2017-08-15T09:23:04.015Z,9.50
2017-08-15T09:25:30.631Z,11.17
2017-08-15T09:27:57.262Z,11.00
2017-08-15T09:30:23.915Z,8.80
2017-08-15T09:32:50.540Z,11.50
2017-08-15T09:35:17.186Z,8.63
2017-08-15T09:37:43.807Z,11.73
2017-08-15T09:40:10.439Z,15.33
2017-08-15T09:42:37.083Z,9.50
2017-08-15T09:45:03.735Z,14.00
2017-08-15T09:47:30.392Z,16.07
2017-08-15T09:49:57.020Z,15.93
2017-08-15T09:52:23.650Z,17.10
2017-08-15T09:54:50.304Z,16.83
2017-08-15T09:57:16.945Z,14.87
2017-08-15T09:59:43.567Z,12.00
2017-08-15T10:02:10.207Z,14.70
2017-08-15T10:04:36.876Z,12.40
2017-08-15T10:07:03.530Z,13.00
2017-08-15T10:09:30.957Z,15.60
2017-08-15T10:11:57.607Z,15.70
2017-08-15T10:14:24.220Z,15.40
2017-08-15T10:16:50.871Z,15.00
2017-08-15T10:19:18.418Z,15.80
2017-08-15T10:21:45.069Z,13.23
2017-08-15T10:24:11.742Z,15.80
2017-08-15T10:26:38.362Z,13.00
2017-08-15T10:29:04.994Z,14.27
2017-08-15T10:31:31.635Z,14.47
2017-08-15T10:33:58.261Z,12.70
2017-08-15T10:36:24.905Z,12.13
2017-08-15T10:38:51.525Z,14.00
2017-08-15T10:41:18.189Z,12.07
2017-08-15T10:43:44.827Z,9.93
2017-08-15T10:46:11.650Z,14.00
2017-08-15T10:48:38.280Z,14.10
2017-08-15T10:51:04.903Z,11.97
2017-08-15T10:53:31.528Z,13.13
2017-08-15T10:55:58.173Z,7.23
2017-08-15T10:58:24.790Z,10.03
2017-08-15T11:00:51.441Z,8.93
2017-08-15T11:03:18.080Z,9.27
2017-08-15T11:05:44.716Z,9.53
2017-08-15T11:08:11.360Z,6.67
2017-08-15T11:10:37.983Z,7.43
2017-08-15T11:13:04.595Z,8.23
2017-08-15T11:15:31.231Z,7.13
2017-08-15T11:17:57.855Z,10.13
2017-08-15T11:20:24.500Z,6.13
2017-08-15T11:22:51.153Z,8.43
2017-08-15T11:25:17.786Z,7.90
2017-08-15T11:27:44.428Z,7.30
2017-08-15T11:30:11.051Z,6.20
2017-08-15T11:32:37.696Z,9.27
2017-08-15T11:35:04.358Z,6.10
2017-08-15T11:37:30.970Z,9.27
2017-08-15T11:39:57.604Z,7.63
2017-08-15T11:42:24.234Z,9.63
2017-08-15T11:44:50.855Z,10.47
2017-08-15T11:47:17.556Z,11.70
2017-08-15T11:49:44.163Z,7.67
2017-08-15T11:52:10.795Z,11.80
2017-08-15T11:54:37.464Z,8.97
2017-08-15T11:57:04.077Z,14.10
2017-08-15T11:59:30.700Z,7.27
2017-08-15T12:01:57.338Z,6.07
2017-08-15T12:04:23.986Z,4.63
2017-08-15T12:06:50.698Z,8.23
2017-08-15T12:09:17.307Z,7.17
2017-08-15T12:11:43.930Z,8.23
2017-08-15T12:14:10.574Z,11.17
2017-08-15T12:16:37.188Z,7.10
2017-08-15T12:19:03.827Z,9.57
2017-08-15T12:21:30.468Z,11.33
2017-08-15T12:23:57.120Z,7.60
2017-08-15T12:26:23.764Z,8.60
2017-08-15T12:28:50.397Z,5.03
2017-08-15T12:31:17.339Z,4.93
2017-08-15T12:33:43.968Z,7.20
2017-08-15T12:36:10.600Z,4.90
2017-08-15T12:38:37.851Z,8.17
2017-08-15T12:41:05.460Z,6.37
2017-08-15T12:43:32.081Z,5.70
2017-08-15T12:45:59.000Z,12.40
2017-08-15T12:48:25.664Z,5.40
2017-08-15T12:50:52.308Z,9.93
2017-08-15T12:53:19.281Z,6.40
2017-08-15T12:55:47.627Z,9.40
2017-08-15T12:58:14.259Z,6.57
2017-08-15T13:00:40.889Z,6.77
2017-08-15T13:03:07.510Z,5.50
2017-08-15T13:05:34.183Z,14.97
2017-08-15T13:08:00.807Z,6.47
2017-08-15T13:10:27.587Z,7.00
2017-08-15T13:12:54.219Z,5.57
2017-08-15T13:15:21.136Z,8.07
2017-08-15T13:17:47.766Z,7.83
2017-08-15T13:20:15.300Z,6.83
2017-08-15T13:22:41.948Z,6.97
2017-08-15T13:25:08.551Z,3.63
2017-08-15T13:27:35.187Z,5.40
2017-08-15T13:30:01.810Z,6.30
2017-08-15T13:32:28.430Z,6.63
2017-08-15T13:34:55.080Z,7.37
2017-08-15T13:37:22.487Z,5.70
2017-08-15T13:39:49.114Z,6.00
2017-08-15T13:42:15.740Z,4.47
2017-08-15T13:44:42.401Z,4.53
2017-08-15T13:47:09.015Z,7.43
2017-08-15T13:49:36.368Z,7.97
2017-08-15T13:52:03.004Z,6.87
2017-08-15T13:54:29.635Z,6.07
2017-08-15T13:56:56.258Z,6.83
2017-08-15T13:59:22.868Z,5.60
2017-08-15T14:01:49.493Z,5.50
2017-08-15T14:04:16.118Z,7.10
2017-08-15T14:06:42.757Z,10.23
2017-08-15T14:09:09.415Z,4.50
2017-08-15T14:11:36.032Z,7.47
2017-08-15T14:14:02.916Z,7.00
2017-08-15T14:16:29.532Z,9.80
2017-08-15T14:18:56.195Z,5.07
2017-08-15T14:21:22.853Z,12.73
2017-08-15T14:23:49.470Z,5.70
2017-08-15T14:26:16.151Z,10.43
2017-08-15T14:28:42.837Z,5.27
2017-08-15T14:31:10.172Z,6.40
2017-08-15T14:33:36.802Z,5.43
2017-08-15T14:36:03.459Z,6.27
2017-08-15T14:38:30.110Z,5.20
2017-08-15T14:40:56.744Z,3.17
2017-08-15T14:43:23.390Z,5.10
2017-08-15T14:45:50.039Z,3.83
2017-08-15T14:48:16.707Z,6.17
2017-08-15T14:50:43.353Z,7.30
2017-08-15T14:53:09.991Z,9.57
2017-08-15T14:55:36.610Z,7.10
2017-08-15T14:58:03.240Z,4.67
2017-08-15T15:00:29.855Z,4.90
2017-08-15T15:02:56.488Z,4.70
2017-08-15T15:05:23.132Z,6.87
2017-08-15T15:07:49.763Z,6.67
2017-08-15T15:10:16.407Z,4.67
2017-08-15T15:12:43.055Z,8.83
2017-08-15T15:15:09.695Z,7.53
2017-08-15T15:17:36.302Z,5.10
2017-08-15T15:20:02.945Z,4.20
2017-08-15T15:22:29.584Z,7.10
2017-08-15T15:24:56.208Z,3.10
2017-08-15T15:27:22.839Z,5.70
2017-08-15T15:29:49.469Z,7.17
2017-08-15T15:32:16.091Z,5.80
2017-08-15T15:34:42.722Z,4.37
2017-08-15T15:37:09.432Z,6.03
2017-08-15T15:39:36.055Z,6.40
2017-08-15T15:42:02.716Z,6.70
2017-08-15T15:44:31.259Z,5.40
2017-08-15T15:46:57.907Z,6.80
2017-08-15T15:49:24.514Z,8.10
2017-08-15T15:51:51.143Z,4.60
2017-08-15T15:54:17.793Z,4.90
2017-08-15T15:56:44.427Z,9.73
2017-08-15T15:59:11.077Z,5.33
2017-08-15T16:01:37.714Z,5.80
2017-08-15T16:04:04.344Z,8.07
2017-08-15T16:06:30.988Z,6.63
2017-08-15T16:08:57.626Z,7.97
2017-08-15T16:11:24.638Z,9.53
2017-08-15T16:13:51.284Z,6.17
2017-08-15T16:16:17.931Z,6.83
2017-08-15T16:18:44.546Z,7.53
2017-08-15T16:21:11.196Z,6.70
2017-08-15T16:23:38.199Z,7.30
2017-08-15T16:26:04.848Z,5.30
2017-08-15T16:28:31.455Z,8.10
2017-08-15T16:30:58.083Z,8.60
2017-08-15T16:33:24.727Z,10.30
2017-08-15T16:35:51.396Z,6.00
2017-08-15T16:38:18.025Z,4.90
2017-08-15T16:40:44.960Z,10.53
2017-08-15T16:43:11.634Z,7.07
2017-08-15T16:45:38.290Z,5.30
2017-08-15T16:48:04.927Z,6.03
2017-08-15T16:50:31.572Z,7.50
2017-08-15T16:52:59.075Z,5.80
2017-08-15T16:55:26.813Z,5.60
2017-08-15T16:57:53.437Z,8.13
2017-08-15T17:00:20.103Z,5.80
2017-08-15T17:02:46.724Z,6.40
2017-08-15T17:05:13.369Z,5.03
2017-08-15T17:07:39.980Z,6.07
2017-08-15T17:10:06.607Z,7.20
2017-08-15T17:12:33.251Z,5.23
2017-08-15T17:14:59.880Z,6.73
2017-08-15T17:17:26.528Z,6.30
2017-08-15T17:19:53.497Z,8.70
2017-08-15T17:22:20.166Z,13.93
2017-08-15T17:24:46.778Z,9.10
2017-08-15T17:27:13.556Z,11.10
2017-08-15T17:29:40.184Z,7.60
2017-08-15T17:32:06.838Z,7.80
2017-08-15T17:34:33.460Z,6.97
2017-08-15T17:37:00.098Z,6.67
2017-08-15T17:39:26.754Z,6.43
2017-08-15T17:41:53.395Z,8.63
2017-08-15T17:44:20.008Z,7.13
2017-08-15T17:46:46.628Z,6.47
2017-08-15T17:49:13.254Z,7.80
2017-08-15T17:51:39.879Z,8.43
2017-08-15T17:54:06.513Z,8.27
2017-08-15T17:56:33.178Z,7.60
2017-08-15T17:59:00.518Z,7.90
2017-08-15T18:01:27.124Z,12.27
2017-08-15T18:03:53.768Z,12.03
2017-08-15T18:06:20.406Z,10.43
2017-08-15T18:08:47.034Z,10.10
2017-08-15T18:11:13.683Z,11.20
2017-08-15T18:13:40.346Z,16.63
2017-08-15T18:16:06.981Z,11.07
2017-08-15T18:18:33.640Z,7.53
2017-08-15T18:21:00.269Z,9.50
2017-08-15T18:23:26.926Z,8.40
2017-08-15T18:25:53.563Z,10.23
2017-08-15T18:28:20.230Z,11.07
2017-08-15T18:30:46.854Z,12.03
2017-08-15T18:33:13.483Z,11.10
2017-08-15T18:35:40.125Z,8.83
2017-08-15T18:38:06.757Z,9.73
2017-08-15T18:40:33.391Z,10.93
2017-08-15T18:43:00.021Z,9.67
2017-08-15T18:45:26.698Z,12.20
2017-08-15T18:47:53.355Z,8.83
2017-08-15T18:50:19.982Z,9.13
2017-08-15T18:52:46.636Z,13.60
2017-08-15T18:55:13.275Z,9.97
2017-08-15T18:57:39.898Z,9.00
2017-08-15T19:00:06.548Z,9.57
2017-08-15T19:02:33.180Z,17.20
2017-08-15T19:04:59.843Z,9.50
2017-08-15T19:07:26.493Z,8.77
2017-08-15T19:09:53.123Z,9.50
2017-08-15T19:12:19.764Z,8.77
2017-08-15T19:14:46.417Z,9.60
2017-08-15T19:17:13.486Z,8.57
2017-08-15T19:19:40.109Z,11.27
2017-08-15T19:22:06.782Z,8.30
2017-08-15T19:24:33.439Z,9.83
2017-08-15T19:27:00.056Z,8.90
2017-08-15T19:29:26.716Z,10.63
2017-08-15T19:31:53.385Z,12.47
2017-08-15T19:34:20.181Z,10.33
2017-08-15T19:36:46.890Z,9.37
2017-08-15T19:39:13.685Z,13.00
2017-08-15T19:41:40.395Z,9.23
2017-08-15T19:44:07.023Z,9.67
2017-08-15T19:46:33.714Z,10.40
2017-08-15T19:49:00.360Z,9.83
2017-08-15T19:51:27.144Z,10.30
2017-08-15T19:53:53.894Z,13.73
2017-08-15T19:56:20.661Z,11.80
2017-08-15T19:58:47.403Z,10.07
2017-08-15T20:01:14.042Z,10.10
2017-08-15T20:03:40.653Z,13.70
2017-08-15T20:06:07.312Z,8.60
2017-08-15T20:08:33.932Z,9.67
2017-08-15T20:11:00.562Z,11.73
2017-08-15T20:13:27.180Z,10.27
2017-08-15T20:15:53.821Z,11.67
2017-08-15T20:18:20.459Z,11.63
2017-08-15T20:20:47.065Z,10.40
2017-08-15T20:23:13.700Z,10.30
2017-08-15T20:25:40.351Z,10.20
2017-08-15T20:28:07.027Z,12.17
2017-08-15T20:30:34.406Z,10.70
2017-08-15T20:33:01.021Z,15.27
2017-08-15T20:35:27.670Z,12.80
2017-08-15T20:37:54.346Z,15.70
2017-08-15T20:40:20.971Z,18.47
2017-08-15T20:42:47.630Z,21.33
2017-08-15T20:45:14.264Z,26.80
2017-08-15T20:47:40.908Z,24.60
2017-08-15T20:50:07.538Z,25.47
2017-08-15T20:52:34.192Z,25.13
2017-08-15T20:55:00.832Z,24.13
2017-08-15T20:57:27.463Z,34.70
2017-08-15T20:59:54.120Z,25.77
2017-08-15T21:02:20.754Z,26.07
2017-08-15T21:04:47.399Z,24.67
2017-08-15T21:07:14.057Z,24.47
2017-08-15T21:09:40.698Z,28.23
2017-08-15T21:12:07.337Z,27.33
2017-08-15T21:14:33.966Z,27.53
2017-08-15T21:17:00.608Z,28.27
2017-08-15T21:19:27.260Z,23.50
2017-08-15T21:21:53.911Z,22.23
2017-08-15T21:24:20.563Z,19.03
2017-08-15T21:26:47.215Z,20.33
2017-08-15T21:29:13.836Z,19.70
2017-08-15T21:31:40.481Z,24.87
2017-08-15T21:34:07.136Z,22.80
2017-08-15T21:36:33.789Z,24.20
2017-08-15T21:39:00.435Z,22.93
2017-08-15T21:41:27.068Z,25.40
2017-08-15T21:43:53.686Z,26.33
2017-08-15T21:46:20.336Z,27.60
2017-08-15T21:48:46.956Z,29.53
2017-08-15T21:51:13.631Z,32.90
2017-08-15T21:53:40.238Z,31.90
2017-08-15T21:56:06.889Z,33.70
2017-08-15T21:58:33.533Z,32.80
2017-08-15T22:01:05.955Z,29.07
2017-08-15T22:03:32.591Z,33.93
2017-08-15T22:05:59.265Z,34.17
2017-08-15T22:08:25.897Z,37.10
2017-08-15T22:10:52.545Z,36.77
2017-08-15T22:13:19.197Z,34.43
2017-08-15T22:15:45.807Z,37.83
2017-08-15T22:18:12.466Z,38.93
2017-08-15T22:20:39.084Z,29.50
2017-08-15T22:23:05.711Z,40.73
2017-08-15T22:25:32.357Z,40.27
2017-08-15T22:27:58.986Z,34.13
2017-08-15T22:30:25.631Z,35.23
2017-08-15T22:32:52.254Z,37.23
2017-08-15T22:35:18.925Z,35.20
2017-08-15T22:37:45.566Z,34.83
2017-08-15T22:40:12.187Z,32.60
2017-08-15T22:42:38.831Z,33.80
2017-08-15T22:45:05.444Z,32.50
2017-08-15T22:47:32.067Z,31.60
2017-08-15T22:49:58.704Z,30.17
2017-08-15T22:52:25.344Z,38.93
2017-08-15T22:54:52.005Z,35.53
2017-08-15T22:57:18.645Z,36.20
2017-08-15T22:59:45.279Z,28.50
2017-08-15T23:02:11.917Z,28.50
2017-08-15T23:04:38.568Z,32.33
2017-08-15T23:07:05.229Z,32.30
2017-08-15T23:09:31.872Z,31.13
2017-08-15T23:11:58.515Z,31.60
2017-08-15T23:14:25.159Z,29.77
2017-08-15T23:16:51.796Z,30.00
2017-08-15T23:19:18.456Z,29.50
2017-08-15T23:21:45.071Z,27.13
2017-08-15T23:24:11.698Z,32.20
2017-08-15T23:26:38.310Z,28.77
2017-08-15T23:29:04.943Z,36.20
2017-08-15T23:31:31.582Z,31.67
2017-08-15T23:33:58.220Z,33.87
2017-08-15T23:36:24.849Z,37.53
2017-08-15T23:38:51.504Z,35.03
2017-08-15T23:41:18.115Z,36.53
2017-08-15T23:43:44.735Z,37.40
2017-08-15T23:46:11.397Z,34.63
2017-08-15T23:48:38.020Z,36.97
2017-08-15T23:51:04.649Z,31.33
2017-08-15T23:53:31.272Z,33.20
2017-08-15T23:55:57.910Z,31.57
2017-08-15T23:58:24.553Z,37.80
